^^
Station Historical Data
Daily Summary for October 2, 2017 Units:  English    Metric   Both
« Previous Day
Next Day »
Daily Weekly Monthly Yearly Custom
  High: Low: Average:
Temperature: 71.4 °F 46.4 °F 57.5 °F
Dew Point: 51.0 °F 40.6 °F 46.6 °F
Humidity: 94% 37% 70%
Wind Speed: 3.0mph 0.0mph 0.4mph
Wind Gust: 8.0mph - -
Wind- - SW
Pressure: 30.52 in 30.32 in -
Precipitation: 0.00 in    
Historical Graphs
 
 
Tabular Data for October 2, 2017
Time Temperature Dew Point Pressure Wind Wind Speed Wind Gust Humidity Rainfall Rate (Hourly) Conditions
00:00 49.2 °F 46.7 °F 30.32 in Calm     91% 0.00 in CLR
00:15 48.6 °F 46.4 °F 30.32 in Calm     92% 0.00 in CLR
00:30 48.7 °F 46.5 °F 30.32 in Calm     92% 0.00 in CLR
00:45 49.6 °F 47.9 °F 30.32 in Calm     94% 0.00 in CLR
01:00 50.4 °F 48.7 °F 30.32 in Calm   1.0 mph 94% 0.00 in CLR
01:15 51.6 °F 49.4 °F 30.32 in Calm   2.0 mph 92% 0.00 in CLR
01:30 51.7 °F 48.9 °F 30.33 in Calm   3.0 mph 90% 0.00 in CLR
01:45 51.2 °F 48.4 °F 30.33 in Calm   1.0 mph 90% 0.00 in CLR
02:00 50.3 °F 47.2 °F 30.33 in Calm     89% 0.00 in CLR
02:15 50.3 °F 47.2 °F 30.33 in Calm   2.0 mph 89% 0.00 in CLR
02:30 50.4 °F 46.4 °F 30.33 in Calm   2.0 mph 86% 0.00 in CLR
02:45 50.8 °F 46.1 °F 30.33 in Calm   2.0 mph 84% 0.00 in CLR
03:00 50.6 °F 45.9 °F 30.32 in Calm   2.0 mph 84% 0.00 in CLR
03:15 50.3 °F 45.3 °F 30.33 in Calm   2.0 mph 83% 0.00 in CLR
03:30 50.1 °F 45.1 °F 30.33 in Calm   1.0 mph 83% 0.00 in CLR
03:45 49.4 °F 44.7 °F 30.33 in Calm     84% 0.00 in CLR
04:00 48.8 °F 44.5 °F 30.33 in Calm   1.0 mph 85% 0.00 in CLR
04:15 49.2 °F 44.2 °F 30.34 in Calm   1.0 mph 83% 0.00 in CLR
04:30 48.9 °F 44.3 °F 30.34 in Calm   1.0 mph 84% 0.00 in CLR
05:00 48.1 °F 43.8 °F 30.35 in Calm     85% 0.00 in CLR
05:15 47.8 °F 43.8 °F 30.35 in Calm     86% 0.00 in CLR
05:30 48.4 °F 44.1 °F 30.35 in Calm   2.0 mph 85% 0.00 in CLR
05:45 47.7 °F 43.7 °F 30.36 in Calm     86% 0.00 in CLR
06:00 47.5 °F 43.5 °F 30.36 in Calm   1.0 mph 86% 0.00 in CLR
06:15 47.2 °F 43.5 °F 30.37 in Calm   1.0 mph 87% 0.00 in CLR
06:30 46.9 °F 43.5 °F 30.37 in Calm     88% 0.00 in CLR
06:45 46.7 °F 43.4 °F 30.38 in Calm     88% 0.00 in CLR
07:00 46.6 °F 43.5 °F 30.38 in Calm     89% 0.00 in CLR
07:15 46.4 °F 43.4 °F 30.39 in Calm     89% 0.00 in CLR
07:30 46.4 °F 43.4 °F 30.39 in Calm     89% 0.00 in CLR
07:45 46.8 °F 44.1 °F 30.40 in Calm   1.0 mph 90% 0.00 in CLR
08:00 47.6 °F 44.5 °F 30.40 in Calm     89% 0.00 in CLR
08:15 48.6 °F 44.9 °F 30.41 in Calm   1.0 mph 87% 0.00 in CLR
08:30 50.3 °F 45.6 °F 30.41 in Calm   4.0 mph 84% 0.00 in CLR
08:45 51.5 °F 45.9 °F 30.42 in North 3.0 mph 8.0 mph 81% 0.00 in CLR
09:00 52.6 °F 46.2 °F 30.42 in Calm   8.0 mph 79% 0.00 in CLR
09:15 53.9 °F 46.9 °F 30.43 in North 1.0 mph 4.0 mph 77% 0.00 in CLR
09:30 55.0 °F 47.2 °F 30.43 in North 1.0 mph 7.0 mph 75% 0.00 in CLR
09:45 56.0 °F 47.1 °F 30.44 in NNE 1.0 mph 6.0 mph 72% 0.00 in CLR
10:00 57.3 °F 47.6 °F 30.44 in North 1.0 mph 8.0 mph 70% 0.00 in CLR
10:15 58.5 °F 47.6 °F 30.44 in NNE 1.0 mph 5.0 mph 67% 0.00 in CLR
10:30 59.5 °F 49.7 °F 30.44 in North 1.0 mph 5.0 mph 70% 0.00 in CLR
10:45 59.6 °F 50.2 °F 30.44 in Calm   5.0 mph 71% 0.00 in CLR
11:00 60.3 °F 50.1 °F 30.45 in WSW 1.0 mph 5.0 mph 69% 0.00 in CLR
11:15 60.9 °F 51.0 °F 30.44 in Calm   5.0 mph 70% 0.00 in CLR
11:45 62.1 °F 50.6 °F 30.44 in NW 2.0 mph 5.0 mph 66% 0.00 in CLR
12:15 63.2 °F 50.0 °F 30.43 in West 1.0 mph 5.0 mph 62% 0.00 in CLR
12:30 63.7 °F 49.5 °F 30.43 in NW 1.0 mph 5.0 mph 60% 0.00 in CLR
12:44 64.2 °F 50.0 °F 30.43 in SSE 1.0 mph 5.0 mph 60% 0.00 in
13:14 65.5 °F 46.9 °F 30.41 in West 1.0 mph 4.0 mph 51% 0.00 in
13:45 67.0 °F 47.7 °F 30.40 in SW 2.0 mph 6.0 mph 50% 0.00 in CLR
14:00 67.9 °F 47.5 °F 30.40 in SW 1.0 mph 7.0 mph 48% 0.00 in CLR
14:15 68.2 °F 42.3 °F 30.40 in WNW 2.0 mph 6.0 mph 39% 0.00 in CLR
14:30 67.8 °F 40.6 °F 30.40 in West 3.0 mph 6.0 mph 37% 0.00 in CLR
14:45 68.4 °F 42.4 °F 30.40 in WSW 2.0 mph 8.0 mph 39% 0.00 in CLR
15:00 68.6 °F 43.3 °F 30.40 in West 1.0 mph 7.0 mph 40% 0.00 in CLR
15:15 68.8 °F 41.4 °F 30.40 in WSW 2.0 mph 6.0 mph 37% 0.00 in CLR
15:30 68.7 °F 41.3 °F 30.40 in WNW 1.0 mph 6.0 mph 37% 0.00 in CLR
15:45 68.9 °F 43.6 °F 30.40 in West 1.0 mph 8.0 mph 40% 0.00 in CLR
16:00 70.2 °F 44.7 °F 30.40 in Calm   6.0 mph 40% 0.00 in CLR
16:15 70.4 °F 45.5 °F 30.40 in NNE 1.0 mph 5.0 mph 41% 0.00 in CLR
16:30 70.8 °F 45.3 °F 30.40 in North 1.0 mph 6.0 mph 40% 0.00 in CLR
16:45 71.4 °F 45.8 °F 30.41 in Calm   4.0 mph 40% 0.00 in CLR
17:00 71.1 °F 46.2 °F 30.41 in WNW 1.0 mph 6.0 mph 41% 0.00 in CLR
17:15 70.7 °F 45.8 °F 30.42 in NNW 2.0 mph 5.0 mph 41% 0.00 in CLR
17:30 69.6 °F 46.1 °F 30.42 in Calm   5.0 mph 43% 0.00 in CLR
17:45 69.4 °F 44.0 °F 30.42 in NNW 1.0 mph 4.0 mph 40% 0.00 in CLR
18:00 69.4 °F 45.3 °F 30.43 in Calm   3.0 mph 42% 0.00 in CLR
18:15 68.8 °F 44.8 °F 30.43 in Calm   2.0 mph 42% 0.00 in CLR
18:30 66.5 °F 46.8 °F 30.44 in Calm     49% 0.00 in CLR
18:45 63.6 °F 45.1 °F 30.44 in Calm   1.0 mph 51% 0.00 in CLR
19:00 62.1 °F 46.2 °F 30.44 in Calm   1.0 mph 56% 0.00 in CLR
19:15 61.6 °F 48.1 °F 30.44 in Calm   1.0 mph 61% 0.00 in CLR
19:30 61.5 °F 48.4 °F 30.45 in Calm   1.0 mph 62% 0.00 in CLR
19:45 60.3 °F 48.1 °F 30.46 in Calm     64% 0.00 in CLR
20:00 59.7 °F 48.3 °F 30.46 in Calm     66% 0.00 in CLR
20:15 59.9 °F 48.9 °F 30.47 in Calm   1.0 mph 67% 0.00 in CLR
20:30 59.1 °F 49.3 °F 30.48 in Calm   1.0 mph 70% 0.00 in CLR
20:45 59.3 °F 50.3 °F 30.48 in Calm   2.0 mph 72% 0.00 in CLR
21:00 59.0 °F 50.0 °F 30.49 in Calm   1.0 mph 72% 0.00 in CLR
21:15 58.8 °F 50.1 °F 30.49 in Calm   2.0 mph 73% 0.00 in CLR
21:30 58.6 °F 50.3 °F 30.50 in Calm   3.0 mph 74% 0.00 in CLR
21:45 58.4 °F 50.5 °F 30.50 in Calm   2.0 mph 75% 0.00 in CLR
22:00 57.6 °F 50.8 °F 30.51 in NNW 1.0 mph 3.0 mph 78% 0.00 in CLR
22:15 57.4 °F 50.9 °F 30.51 in Calm   4.0 mph 79% 0.00 in CLR
22:30 57.1 °F 51.0 °F 30.52 in Calm   1.0 mph 80% 0.00 in CLR
22:45 57.0 °F 50.9 °F 30.52 in Calm   1.0 mph 80% 0.00 in CLR
23:00 56.8 °F 51.0 °F 30.52 in Calm   1.0 mph 81% 0.00 in CLR
23:30 55.8 °F 50.8 °F 30.52 in Calm   1.0 mph 83% 0.00 in CLR
TarryTown NY Weather
Compliments of Weather Underground - 1.5 mb